Time;durP1;ratioP1;P1;durP2;ratioP2;P2;SDS_P1;SDS_P2;PMS_P1;PMS_P2;Temp;Humidity;BMP_temperature;BMP_pressure;BME280_temperature;BME280_humidity;BME280_pressure;Samples;Min_cycle;Max_cycle;Signal;HPM_P1;HPM_P2
2021/05/10 00:02:04;;;;;;;4.80;4.40;;;;;;;21.84;40.21;99788.75;5118715;28;20532;-63
2021/05/10 00:04:29;;;;;;;6.10;4.30;;;;;;;21.77;40.02;99795.31;5118729;28;20276;-63
2021/05/10 00:06:55;;;;;;;4.83;4.17;;;;;;;21.86;39.19;99792.16;5119394;28;20217;-63
2021/05/10 00:09:20;;;;;;;5.03;4.53;;;;;;;21.96;39.53;99804.94;5118808;28;20211;-63
2021/05/10 00:11:45;;;;;;;4.57;4.17;;;;;;;21.91;38.59;99801.72;5118557;28;20171;-63
2021/05/10 00:14:11;;;;;;;4.43;4.03;;;;;;;22.23;37.75;99804.44;5119254;28;20224;-63
2021/05/10 00:16:37;;;;;;;4.40;4.00;;;;;;;22.08;37.14;99795.50;5118660;28;20178;-64
2021/05/10 00:19:03;;;;;;;3.90;3.60;;;;;;;22.34;37.10;99804.72;5118190;28;20405;-63
2021/05/10 00:21:28;;;;;;;4.97;4.37;;;;;;;21.93;36.70;99808.63;5118935;28;20225;-63
2021/05/10 00:23:53;;;;;;;4.93;4.20;;;;;;;22.27;37.34;99805.97;5118326;28;20191;-62
2021/05/10 00:26:19;;;;;;;4.83;4.33;;;;;;;22.11;36.75;99808.59;5117823;28;20172;-62
2021/05/10 00:28:44;;;;;;;4.70;4.30;;;;;;;22.26;36.11;99805.13;5118952;28;20178;-63
2021/05/10 00:31:09;;;;;;;9.57;4.00;;;;;;;22.34;35.89;99802.94;5118503;28;20188;-63
2021/05/10 00:33:35;;;;;;;4.50;4.10;;;;;;;21.96;36.50;99804.94;5118469;28;20171;-63
2021/05/10 00:36:00;;;;;;;4.70;4.13;;;;;;;21.64;37.92;99804.84;5119094;28;20168;-62
2021/05/10 00:38:25;;;;;;;5.27;4.77;;;;;;;21.97;38.49;99806.69;5118483;28;20175;-63
2021/05/10 00:40:51;;;;;;;6.70;4.83;;;;;;;21.73;39.45;99809.69;5118361;28;20489;-62
2021/05/10 00:43:16;;;;;;;4.80;4.37;;;;;;;21.26;40.45;99804.97;5118941;28;20163;-63
2021/05/10 00:45:41;;;;;;;4.70;4.30;;;;;;;21.74;38.91;99808.72;5118241;28;20238;-63
2021/05/10 00:48:07;;;;;;;4.30;4.00;;;;;;;21.59;39.38;99806.88;5118305;28;20259;-62
2021/05/10 00:50:32;;;;;;;5.07;4.53;;;;;;;20.98;39.83;99812.47;5118789;28;20175;-62
2021/05/10 00:52:58;;;;;;;4.30;4.00;;;;;;;21.58;39.39;99810.47;5118295;28;20178;-63
2021/05/10 00:55:24;;;;;;;5.10;4.60;;;;;;;21.68;38.21;99817.03;5118223;28;20175;-63
2021/05/10 00:58:03;;;;;;;4.70;4.30;;;;;;;21.70;37.98;99809.81;5118782;28;20529;-62
2021/05/10 01:00:35;;;;;;;4.40;4.00;;;;;;;21.97;36.54;99806.69;5118232;28;20418;-63
2021/05/10 01:03:00;;;;;;;4.50;4.10;;;;;;;21.89;36.70;99798.25;5118385;28;20414;-63
2021/05/10 01:05:26;;;;;;;4.37;3.97;;;;;;;21.86;37.64;99794.81;5118242;28;20435;-64
2021/05/10 01:07:51;;;;;;;5.80;4.50;;;;;;;21.70;36.76;99801.88;5118252;28;20179;-63
2021/05/10 01:10:19;;;;;;;4.60;4.20;;;;;;;21.88;35.95;99808.03;5100936;28;20205;-62
2021/05/10 01:12:44;;;;;;;4.13;3.80;;;;;;;22.17;35.82;99795.00;5118349;28;20490;-62
2021/05/10 01:15:13;;;;;;;4.23;3.83;;;;;;;21.95;35.84;99800.59;5118186;28;20413;-62
2021/05/10 01:17:39;;;;;;;4.00;3.60;;;;;;;21.82;35.69;99795.91;5119726;28;20423;-62
2021/05/10 01:20:09;;;;;;;4.00;3.60;;;;;;;21.62;35.80;99794.31;5121923;28;20433;-62
2021/05/10 01:22:46;;;;;;;4.23;3.80;;;;;;;22.00;35.22;99796.75;5121722;28;20170;-63
2021/05/10 01:25:16;;;;;;;4.10;3.70;;;;;;;21.78;35.17;99796.16;5121667;28;20486;-63
2021/05/10 01:27:42;;;;;;;4.37;3.97;;;;;;;21.84;34.91;99799.38;5121726;28;20705;-62
2021/05/10 01:30:11;;;;;;;4.77;3.67;;;;;;;21.75;35.80;99797.19;5121950;28;20391;-62
2021/05/10 01:32:37;;;;;;;4.67;3.50;;;;;;;21.68;35.35;99799.28;5120578;28;20438;-62
2021/05/10 01:35:06;;;;;;;4.37;3.70;;;;;;;21.73;34.95;99792.91;5122015;28;20407;-62
2021/05/10 01:37:31;;;;;;;5.07;3.73;;;;;;;21.76;35.23;99798.91;5121517;28;20189;-63
2021/05/10 01:39:56;;;;;;;7.60;3.90;;;;;;;21.85;33.85;99798.44;5121508;28;20535;-62
2021/05/10 01:42:22;;;;;;;4.13;3.80;;;;;;;22.06;33.89;99794.72;5121907;28;20167;-63
2021/05/10 01:44:47;;;;;;;4.07;3.67;;;;;;;21.47;35.31;99793.28;5121394;28;20260;-63
2021/05/10 01:47:12;;;;;;;4.17;3.80;;;;;;;21.79;35.25;99797.91;5121381;28;20167;-63
2021/05/10 01:49:38;;;;;;;5.50;4.13;;;;;;;21.93;33.88;99805.13;5121871;28;20164;-63
2021/05/10 01:52:03;;;;;;;5.53;3.80;;;;;;;22.12;34.04;99795.25;5121187;28;20551;-63
2021/05/10 01:54:28;;;;;;;4.40;3.70;;;;;;;21.84;34.21;99803.81;5121218;28;20164;-63
2021/05/10 01:56:54;;;;;;;4.63;3.57;;;;;;;21.78;34.93;99806.78;5121835;28;20163;-62
2021/05/10 01:59:19;;;;;;;3.73;3.43;;;;;;;21.74;35.27;99808.72;5121288;28;20224;-63
2021/05/10 02:01:45;;;;;;;4.10;3.70;;;;;;;21.82;35.39;99803.03;5121015;28;20191;-63
2021/05/10 02:04:10;;;;;;;3.90;3.60;;;;;;;21.87;34.44;99801.00;5121301;28;20191;-62
2021/05/10 02:06:35;;;;;;;3.87;3.20;;;;;;;21.74;34.63;99800.78;5121029;28;20203;-63
2021/05/10 02:09:01;;;;;;;4.53;3.83;;;;;;;21.84;34.57;99796.72;5121105;28;20213;-62
2021/05/10 02:11:26;;;;;;;4.10;3.70;;;;;;;21.75;34.00;99791.03;5121165;28;20164;-63
2021/05/10 02:13:51;;;;;;;3.97;3.67;;;;;;;22.11;33.98;99796.19;5120794;28;20179;-63
2021/05/10 02:16:17;;;;;;;5.40;3.70;;;;;;;21.73;34.43;99799.06;5120826;28;20172;-62
2021/05/10 02:18:42;;;;;;;9.03;3.80;;;;;;;21.83;33.67;99804.75;5121400;28;20471;-62
2021/05/10 02:21:07;;;;;;;4.10;3.80;;;;;;;21.95;34.22;99798.78;5120629;28;20202;-62
2021/05/10 02:23:34;;;;;;;7.17;4.83;;;;;;;21.84;34.13;99798.53;5120408;28;20178;-63
2021/05/10 02:26:05;;;;;;;3.97;3.50;;;;;;;21.77;34.23;99800.63;5120443;28;20230;-62
2021/05/10 02:28:31;;;;;;;4.00;3.70;;;;;;;21.79;34.36;99812.00;5120034;28;20405;-63
2021/05/10 02:30:59;;;;;;;3.93;3.50;;;;;;;21.73;33.67;99799.06;5119931;28;20434;-63
2021/05/10 02:33:26;;;;;;;5.40;3.60;;;;;;;22.02;33.72;99804.63;5120516;28;20461;-63
2021/05/10 02:35:53;;;;;;;5.17;3.60;;;;;;;22.09;33.10;99791.91;5120462;28;20489;-63
2021/05/10 02:38:19;;;;;;;3.57;3.23;;;;;;;22.21;33.21;99800.03;5120658;28;20432;-63
2021/05/10 02:40:46;;;;;;;4.80;3.80;;;;;;;22.09;33.41;99810.47;5120295;28;20736;-63
2021/05/10 02:43:11;;;;;;;4.20;3.70;;;;;;;22.00;34.09;99814.47;5120176;28;20406;-62
2021/05/10 02:45:37;;;;;;;4.57;3.70;;;;;;;22.18;33.53;99820.63;5120486;28;20444;-63
2021/05/10 02:48:03;;;;;;;3.63;3.33;;;;;;;21.94;33.96;99817.47;5120231;28;20221;-63
2021/05/10 02:50:28;;;;;;;3.93;3.33;;;;;;;22.17;33.14;99818.88;5120091;28;20174;-63
2021/05/10 02:52:54;;;;;;;3.70;3.20;;;;;;;22.35;32.91;99814.41;5120517;28;20455;-63
2021/05/10 02:55:20;;;;;;;5.17;3.50;;;;;;;22.19;33.74;99817.88;5120016;28;20199;-64
2021/05/10 02:57:47;;;;;;;5.73;3.73;;;;;;;22.44;33.41;99816.56;5120108;28;20159;-63
2021/05/10 03:00:15;;;;;;;5.90;3.63;;;;;;;22.21;33.02;99815.97;5120456;28;20164;-63
2021/05/10 03:02:40;;;;;;;5.93;3.60;;;;;;;22.43;33.92;99798.91;5119740;28;20419;-63
2021/05/10 03:05:07;;;;;;;4.20;3.90;;;;;;;22.69;33.10;99783.31;5119827;28;20496;-63
2021/05/10 03:07:33;;;;;;;4.83;3.63;;;;;;;22.33;33.86;99805.66;5120212;28;20192;-63
2021/05/10 03:09:58;;;;;;;4.30;3.60;;;;;;;22.63;33.69;99826.19;5119780;28;20489;-63
2021/05/10 03:12:23;;;;;;;4.30;3.60;;;;;;;22.43;33.35;99835.25;5118804;28;20171;-63
2021/05/10 03:14:49;;;;;;;3.80;3.50;;;;;;;22.27;34.15;99832.53;5120162;28;20512;-63
2021/05/10 03:17:14;;;;;;;3.90;3.60;;;;;;;22.48;33.47;99817.28;5119558;28;20178;-63
2021/05/10 03:19:39;;;;;;;5.00;3.73;;;;;;;22.59;33.04;99828.16;5119674;28;20167;-63
2021/05/10 03:22:05;;;;;;;6.23;3.80;;;;;;;22.41;33.96;99834.47;5120062;28;20419;-62
2021/05/10 03:24:30;;;;;;;4.00;3.63;;;;;;;22.58;33.59;99831.75;5119247;28;20220;-62
2021/05/10 03:26:55;;;;;;;4.33;3.90;;;;;;;22.80;33.35;99835.88;5119486;28;20167;-62
2021/05/10 03:29:21;;;;;;;4.37;3.90;;;;;;;22.90;33.29;99839.72;5119659;28;20220;-63
2021/05/10 03:31:46;;;;;;;6.00;3.97;;;;;;;22.53;33.59;99839.13;5119121;28;20180;-63
2021/05/10 03:34:11;;;;;;;3.80;3.50;;;;;;;22.46;34.21;99849.22;5119371;28;20175;-62
2021/05/10 03:36:37;;;;;;;5.00;3.70;;;;;;;22.77;33.18;99850.22;5119875;28;20201;-63
2021/05/10 03:39:03;;;;;;;5.60;4.10;;;;;;;22.77;33.93;99860.84;5119265;28;20168;-63
2021/05/10 03:41:28;;;;;;;4.83;3.93;;;;;;;21.85;35.31;99864.75;5118705;28;20541;-63
2021/05/10 03:43:56;;;;;;;4.70;4.03;;;;;;;21.85;35.14;99859.47;5119200;28;20496;-63
2021/05/10 03:46:22;;;;;;;6.20;4.20;;;;;;;21.82;36.16;99864.91;5119019;28;20168;-63
2021/05/10 03:48:47;;;;;;;5.00;4.50;;;;;;;21.18;36.92;99864.50;5119051;28;20384;-62
2021/05/10 03:51:12;;;;;;;5.10;4.00;;;;;;;21.30;37.43;99860.41;5119345;28;20174;-62
2021/05/10 03:53:37;;;;;;;4.10;3.80;;;;;;;21.31;37.27;99851.53;5118941;28;20167;-62
2021/05/10 03:56:03;;;;;;;4.50;4.20;;;;;;;21.26;37.00;99852.69;5119030;28;20218;-63
2021/05/10 03:58:28;;;;;;;6.77;4.77;;;;;;;20.94;37.97;99863.03;5119384;28;20171;-63
2021/05/10 04:00:53;;;;;;;5.90;4.13;;;;;;;21.19;37.34;99852.97;5118638;28;20211;-63
2021/05/10 04:03:20;;;;;;;4.57;4.17;;;;;;;21.50;36.55;99851.47;5118810;28;20167;-63
2021/05/10 04:08:40;;;;;;;4.77;4.37;;;;;;;21.71;36.95;99859.28;5118933;28;20388;-62
2021/05/10 04:16:07;;;;;;;4.43;4.03;;;;;;;23.15;33.44;99865.81;5118886;28;20183;-62
2021/05/10 04:18:33;;;;;;;6.13;4.80;;;;;;;22.84;34.08;99861.31;5118822;28;20669;-62
2021/05/10 04:20:59;;;;;;;8.73;4.50;;;;;;;23.01;34.04;99868.38;5118732;28;20167;-62
2021/05/10 04:23:25;;;;;;;4.50;4.10;;;;;;;22.44;35.17;99872.34;5119132;28;20543;-63
2021/05/10 04:25:51;;;;;;;4.67;3.93;;;;;;;21.42;36.59;99868.66;5118276;28;20223;-62
2021/05/10 04:28:17;;;;;;;5.73;4.33;;;;;;;21.84;36.36;99868.34;5118610;28;20258;-62
2021/05/10 04:30:46;;;;;;;4.90;4.50;;;;;;;21.66;36.68;99875.47;5118959;28;20812;-62
2021/05/10 04:33:11;;;;;;;5.33;4.70;;;;;;;21.70;36.97;99873.50;5118634;28;20591;-62
2021/05/10 04:35:37;;;;;;;4.80;4.40;;;;;;;21.45;37.16;99877.34;5118486;28;20653;-62
2021/05/10 04:38:07;;;;;;;5.97;4.57;;;;;;;21.39;37.31;99890.03;5119265;28;20535;-61
2021/05/10 04:40:32;;;;;;;7.90;4.30;;;;;;;21.36;37.68;99893.69;5118343;28;20202;-63
2021/05/10 04:42:58;;;;;;;4.70;4.20;;;;;;;21.50;37.42;99888.59;5118487;28;20671;-61
2021/05/10 04:45:23;;;;;;;5.13;4.67;;;;;;;21.08;38.22;99880.91;5118775;28;20281;-61
2021/05/10 04:47:48;;;;;;;5.00;4.60;;;;;;;21.28;37.87;99874.66;5118383;28;20176;-62
2021/05/10 04:50:14;;;;;;;9.07;4.50;;;;;;;21.09;38.06;99880.84;5118471;28;20246;-62
2021/05/10 04:52:40;;;;;;;5.27;4.77;;;;;;;21.38;37.95;99881.25;5119701;28;20178;-62
2021/05/10 04:55:07;;;;;;;5.10;4.50;;;;;;;21.30;37.81;99886.91;5122339;27;20630;-62
2021/05/10 04:57:32;;;;;;;7.50;4.67;;;;;;;21.11;38.06;99878.16;5122206;28;20176;-63
2021/05/10 04:59:58;;;;;;;5.80;4.17;;;;;;;21.41;37.82;99865.19;5122709;28;20405;-63
2021/05/10 05:02:23;;;;;;;5.17;4.47;;;;;;;21.45;37.76;99860.59;5122077;27;20560;-62
2021/05/10 05:04:49;;;;;;;4.47;4.07;;;;;;;21.35;37.74;99868.13;5121993;28;20196;-63
2021/05/10 05:07:14;;;;;;;6.50;4.80;;;;;;;21.01;38.59;99861.81;5122699;27;20160;-63
2021/05/10 05:09:40;;;;;;;5.40;4.43;;;;;;;21.19;38.28;99863.56;5121437;28;20175;-62
2021/05/10 05:12:05;;;;;;;5.07;4.57;;;;;;;21.49;37.70;99860.34;5121882;28;20415;-63
2021/05/10 05:14:30;;;;;;;5.27;4.17;;;;;;;21.30;38.22;99864.84;5122381;28;20160;-62
2021/05/10 05:16:56;;;;;;;5.73;4.47;;;;;;;21.43;38.01;99860.63;5121939;28;20179;-62
2021/05/10 05:19:21;;;;;;;9.00;4.40;;;;;;;21.19;38.85;99858.28;5121869;28;20167;-61
2021/05/10 05:21:47;;;;;;;10.23;5.03;;;;;;;20.78;39.55;99868.19;5122059;28;20675;-62
2021/05/10 05:24:12;;;;;;;5.77;4.23;;;;;;;21.01;39.56;99867.97;5121407;27;20232;-62
2021/05/10 05:26:37;;;;;;;4.73;4.23;;;;;;;21.15;38.80;99864.66;5121801;28;20262;-62
2021/05/10 05:29:03;;;;;;;5.57;4.90;;;;;;;21.00;39.55;99860.13;5122016;28;20246;-63
2021/05/10 05:31:29;;;;;;;8.00;4.80;;;;;;;20.74;39.88;99871.91;5119262;28;20657;-62
2021/05/10 05:33:54;;;;;;;4.63;4.13;;;;;;;20.86;40.14;99861.63;5119423;28;20160;-63
2021/05/10 05:36:20;;;;;;;4.70;4.30;;;;;;;20.84;39.89;99868.78;5120349;27;20803;-63
2021/05/10 05:38:45;;;;;;;8.97;4.63;;;;;;;20.77;40.20;99850.56;5121116;28;20420;-63
2021/05/10 05:41:12;;;;;;;6.00;4.43;;;;;;;21.06;39.62;99851.84;5120720;28;20187;-63
2021/05/10 05:43:37;;;;;;;4.70;4.20;;;;;;;21.05;39.87;99849.28;5121126;28;20156;-62
2021/05/10 05:46:04;;;;;;;8.30;4.77;;;;;;;20.79;40.01;99870.78;5120620;28;20394;-63
2021/05/10 05:48:29;;;;;;;4.50;4.10;;;;;;;20.39;40.71;99884.94;5121018;27;20175;-63
2021/05/10 05:50:54;;;;;;;5.20;4.60;;;;;;;20.24;41.27;99890.03;5121339;28;20380;-63
2021/05/10 05:53:20;;;;;;;5.20;4.70;;;;;;;20.43;41.33;99884.75;5121207;28;20168;-63
2021/05/10 05:55:45;;;;;;;7.77;4.87;;;;;;;20.27;41.77;99903.09;5121169;28;20236;-63
2021/05/10 05:58:12;;;;;;;6.40;5.30;;;;;;;20.42;41.50;99908.63;5120778;28;20333;-63
2021/05/10 06:00:37;;;;;;;5.20;4.70;;;;;;;20.39;41.26;99904.34;5120554;28;20163;-62
2021/05/10 06:03:03;;;;;;;5.40;4.60;;;;;;;20.46;41.90;99904.94;5119709;28;20669;-61
2021/05/10 06:05:28;;;;;;;7.80;5.50;;;;;;;20.80;40.76;99893.69;5121279;28;20236;-62
2021/05/10 06:07:53;;;;;;;9.87;4.87;;;;;;;20.71;40.92;99887.97;5120935;28;20171;-62
2021/05/10 06:10:23;;;;;;;6.20;4.70;;;;;;;20.67;41.54;99889.84;5120701;28;20160;-62
2021/05/10 06:12:52;;;;;;;5.07;4.53;;;;;;;20.50;41.85;99904.72;5120981;28;20171;-63
2021/05/10 06:15:19;;;;;;;6.70;4.70;;;;;;;20.46;42.30;99894.34;5120660;27;20490;-63
2021/05/10 06:17:45;;;;;;;8.70;5.03;;;;;;;20.10;43.05;99901.19;5120738;28;20477;-62
2021/05/10 06:20:11;;;;;;;8.80;5.30;;;;;;;20.46;42.51;99895.19;5121252;28;20384;-62
2021/05/10 06:22:37;;;;;;;8.27;5.27;;;;;;;20.66;42.17;99890.78;5120334;28;20240;-63
2021/05/10 06:25:04;;;;;;;6.40;5.00;;;;;;;20.70;42.41;99913.56;5120255;28;20465;-63
2021/05/10 06:27:29;;;;;;;9.37;4.90;;;;;;;20.08;43.81;99931.28;5120278;28;20163;-63
2021/05/10 06:29:54;;;;;;;6.90;5.30;;;;;;;20.10;43.94;99935.59;5120638;28;20410;-62
2021/05/10 06:32:19;;;;;;;5.63;5.10;;;;;;;19.89;44.44;99931.19;5120159;28;20191;-64
2021/05/10 06:34:45;;;;;;;6.97;5.20;;;;;;;20.52;43.38;99915.25;5120783;28;20463;-63
2021/05/10 06:37:10;;;;;;;6.23;5.40;;;;;;;20.43;43.69;99923.59;5120404;28;20433;-63
2021/05/10 06:39:35;;;;;;;8.73;5.10;;;;;;;20.53;43.54;99923.13;5120278;28;20167;-62
2021/05/10 06:42:01;;;;;;;11.93;5.20;;;;;;;20.73;43.66;99934.66;5120526;28;20529;-62
2021/05/10 06:44:26;;;;;;;8.80;4.87;;;;;;;20.32;44.46;99943.47;5120155;28;20206;-63
2021/05/10 06:46:51;;;;;;;5.97;5.47;;;;;;;20.49;44.13;99942.72;5120115;28;20168;-63
2021/05/10 06:49:16;;;;;;;6.00;5.00;;;;;;;20.34;44.50;99938.97;5120901;28;20421;-64
2021/05/10 06:51:42;;;;;;;6.67;4.67;;;;;;;20.51;44.13;99919.69;5119959;28;20186;-63
2021/05/10 06:54:07;;;;;;;7.50;5.77;;;;;;;20.90;43.25;99922.41;5120023;28;20163;-63
2021/05/10 06:56:32;;;;;;;6.67;5.30;;;;;;;20.77;43.90;99920.31;5120656;28;20170;-63
2021/05/10 06:58:58;;;;;;;7.60;5.17;;;;;;;20.57;44.43;99925.66;5119797;28;20212;-63
2021/05/10 07:01:23;;;;;;;6.00;5.40;;;;;;;21.12;43.19;99914.28;5119552;28;20171;-63
2021/05/10 07:03:49;;;;;;;5.73;4.97;;;;;;;21.32;43.05;99906.25;5120067;28;20509;-62
2021/05/10 07:06:14;;;;;;;5.57;5.07;;;;;;;21.23;42.99;99913.78;5119800;28;20160;-63
2021/05/10 07:08:39;;;;;;;7.03;5.10;;;;;;;21.63;42.19;99914.53;5119525;28;20171;-63
2021/05/10 07:11:05;;;;;;;5.53;5.07;;;;;;;21.36;42.72;99914.91;5119911;28;20429;-63
2021/05/10 07:13:30;;;;;;;6.13;5.50;;;;;;;21.10;42.82;99921.47;5119704;28;20527;-62
2021/05/10 07:15:55;;;;;;;5.43;4.90;;;;;;;21.86;41.28;99918.69;5118755;28;20179;-63
2021/05/10 07:18:21;;;;;;;7.70;5.17;;;;;;;21.61;42.32;99913.72;5119587;27;20212;-63
2021/05/10 07:20:47;;;;;;;6.60;5.33;;;;;;;21.78;41.62;99919.06;5119053;28;20171;-63
2021/05/10 07:23:14;;;;;;;5.30;4.80;;;;;;;22.04;41.50;99915.09;5119403;28;20167;-64
2021/05/10 07:25:41;;;;;;;8.90;5.50;;;;;;;21.80;41.70;99922.50;5118956;28;20484;-62
2021/05/10 07:28:08;;;;;;;7.33;4.90;;;;;;;21.84;41.35;99921.41;5119247;28;20432;-63
2021/05/10 07:30:34;;;;;;;7.70;5.27;;;;;;;21.94;41.31;99923.59;5119410;28;20406;-63
2021/05/10 07:32:59;;;;;;;5.83;5.23;;;;;;;22.16;40.35;99940.16;5118262;28;20847;-63
2021/05/10 07:35:24;;;;;;;5.60;4.90;;;;;;;22.36;40.50;99938.28;5116958;28;20552;-62
2021/05/10 07:37:49;;;;;;;5.97;5.37;;;;;;;22.37;39.97;99932.03;5114718;28;20212;-62
2021/05/10 07:40:20;;;;;;;6.00;5.37;;;;;;;22.52;39.89;99904.66;5118597;28;20167;-63
2021/05/10 07:42:45;;;;;;;8.27;5.13;;;;;;;23.28;38.81;99924.47;5118458;28;20175;-63
2021/05/10 07:45:11;;;;;;;7.33;5.17;;;;;;;23.50;38.36;99925.91;5118952;28;20453;-65
2021/05/10 07:47:36;;;;;;;5.93;5.37;;;;;;;23.60;37.67;99918.25;5117849;28;20160;-62
2021/05/10 07:50:02;;;;;;;5.80;5.20;;;;;;;25.11;34.91;99914.44;5118612;28;20250;-62
2021/05/10 07:52:28;;;;;;;6.20;5.10;;;;;;;25.40;34.41;99909.06;5119194;28;20170;-63
2021/05/10 07:54:53;;;;;;;6.73;5.30;;;;;;;25.17;34.95;99921.22;5118756;28;20170;-63
2021/05/10 07:57:19;;;;;;;5.13;4.63;;;;;;;27.60;30.12;99920.56;5118792;28;20409;-63
2021/05/10 07:59:46;;;;;;;6.23;5.10;;;;;;;27.14;30.77;99917.59;5119009;28;20163;-62
2021/05/10 08:02:12;;;;;;;5.90;5.10;;;;;;;28.66;28.71;99925.00;5118368;28;20188;-63
2021/05/10 08:04:38;;;;;;;6.50;4.80;;;;;;;27.95;29.57;99930.44;5118708;28;20457;-63
2021/05/10 08:07:03;;;;;;;6.47;4.87;;;;;;;28.02;29.39;99937.06;5118897;28;20577;-62
2021/05/10 08:09:28;;;;;;;8.10;5.07;;;;;;;26.89;31.40;99931.94;5118463;28;20398;-63
2021/05/10 08:11:54;;;;;;;6.40;5.30;;;;;;;24.93;34.97;99940.50;5118314;28;20171;-63
2021/05/10 08:14:20;;;;;;;8.13;5.10;;;;;;;26.64;32.58;99939.00;5118780;28;20155;-63
2021/05/10 08:16:48;;;;;;;9.30;5.03;;;;;;;28.46;29.09;99934.59;5118193;28;20167;-62
2021/05/10 08:19:13;;;;;;;7.23;4.60;;;;;;;29.00;28.63;99933.88;5118305;28;20413;-62
2021/05/10 08:21:41;;;;;;;6.13;4.83;;;;;;;28.59;29.27;99935.34;5118894;28;20910;-62
2021/05/10 08:24:07;;;;;;;7.30;5.40;;;;;;;27.92;29.84;99936.88;5118146;28;20195;-62
2021/05/10 08:26:33;;;;;;;6.70;4.63;;;;;;;28.99;28.60;99940.22;5119534;28;20463;-62
2021/05/10 08:28:58;;;;;;;6.53;4.83;;;;;;;28.97;28.24;99944.00;5122924;28;20250;-63
2021/05/10 08:31:23;;;;;;;8.30;5.17;;;;;;;28.31;29.41;99942.84;5122409;27;20210;-63
2021/05/10 08:33:50;;;;;;;6.13;4.63;;;;;;;27.14;31.29;99944.38;5122662;28;20171;-63
2021/05/10 08:36:17;;;;;;;5.10;4.70;;;;;;;28.20;29.66;99954.41;5123092;28;20163;-62
2021/05/10 08:38:43;;;;;;;5.23;4.17;;;;;;;27.79;29.42;99952.16;5121807;28;20405;-62
2021/05/10 08:41:08;;;;;;;4.27;3.70;;;;;;;28.39;28.57;99956.53;5122264;28;20417;-62
2021/05/10 08:43:33;;;;;;;11.23;5.10;;;;;;;29.80;26.26;99939.06;5122671;28;20175;-62
2021/05/10 08:46:00;;;;;;;7.07;4.30;;;;;;;30.49;25.66;99943.13;5122213;28;20210;-63
2021/05/10 08:48:26;;;;;;;8.53;6.50;;;;;;;30.91;24.56;99938.47;5122359;28;20260;-62
2021/05/10 08:50:53;;;;;;;7.70;4.43;;;;;;;30.48;24.25;99947.63;5122388;28;20449;-62
2021/05/10 08:53:35;;;;;;;8.33;6.73;;;;;;;30.34;24.16;99942.56;5121424;28;20592;-63
2021/05/10 08:56:00;;;;;;;7.23;6.63;;;;;;;30.21;24.94;99946.28;5121542;28;20409;-62
2021/05/10 08:58:26;;;;;;;4.60;3.87;;;;;;;28.59;26.29;99946.06;5122314;28;20409;-63
2021/05/10 09:00:53;;;;;;;5.87;3.90;;;;;;;28.68;26.91;99953.41;5122071;27;20168;-62
2021/05/10 09:03:18;;;;;;;5.73;4.23;;;;;;;27.97;27.27;99948.09;5122496;28;20168;-63
2021/05/10 09:05:48;;;;;;;5.23;4.00;;;;;;;27.61;28.19;99943.72;5121847;28;20553;-62
2021/05/10 09:08:14;;;;;;;4.40;3.50;;;;;;;28.11;27.73;99935.50;5121336;28;20220;-62
2021/05/10 09:10:40;;;;;;;6.20;4.07;;;;;;;27.69;28.12;99946.66;5122442;28;20402;-62
2021/05/10 09:13:05;;;;;;;7.37;4.20;;;;;;;27.50;27.93;99940.00;5121693;28;20168;-62
2021/05/10 09:15:35;;;;;;;7.33;4.10;;;;;;;27.97;27.25;99933.84;5121688;28;20172;-63
2021/05/10 09:18:06;;;;;;;9.23;4.80;;;;;;;28.94;26.26;99923.63;5122203;28;20160;-61
2021/05/10 09:20:42;;;;;;;6.40;4.40;;;;;;;30.33;23.96;99920.19;5120772;28;20421;-63
2021/05/10 09:23:09;;;;;;;4.73;3.90;;;;;;;30.22;23.96;99921.13;5121640;27;20442;-64
2021/05/10 09:25:36;;;;;;;7.63;4.47;;;;;;;30.15;24.10;99925.34;5121263;28;20500;-65
2021/05/10 09:28:21;;;;;;;4.00;3.50;;;;;;;29.53;24.94;99925.09;5121438;28;20420;-62
2021/05/10 09:30:50;;;;;;;5.33;4.00;;;;;;;29.93;24.04;99933.53;5121391;28;20895;-62
2021/05/10 09:33:21;;;;;;;6.43;3.70;;;;;;;29.10;25.31;99942.03;5121424;28;20489;-62
2021/05/10 09:35:46;;;;;;;3.50;3.20;;;;;;;28.77;25.49;99953.63;5121135;28;20709;-62
2021/05/10 09:38:11;;;;;;;5.10;3.70;;;;;;;29.04;25.58;99947.91;5120479;28;20445;-63
2021/05/10 09:40:43;;;;;;;4.90;3.90;;;;;;;29.19;25.25;99954.72;5121596;28;20168;-63
2021/05/10 09:43:09;;;;;;;5.07;3.80;;;;;;;29.15;25.55;99947.88;5121029;28;20164;-63
2021/05/10 09:45:46;;;;;;;4.87;3.80;;;;;;;28.89;25.96;99956.22;5100616;28;20468;-63
2021/05/10 09:48:21;;;;;;;5.67;3.90;;;;;;;28.75;26.57;99953.75;5099786;28;20459;-63
2021/05/10 09:50:47;;;;;;;5.70;4.03;;;;;;;28.72;26.65;99951.34;5100509;28;20421;-66
2021/05/10 09:53:16;;;;;;;5.30;3.93;;;;;;;29.39;25.81;99945.06;5100680;28;20414;-62
2021/05/10 09:55:54;;;;;;;7.00;3.90;;;;;;;31.24;23.05;99946.38;5100965;28;20406;-63
2021/05/10 09:58:21;;;;;;;7.63;3.80;;;;;;;32.23;21.98;99943.59;5100613;28;20462;-62
2021/05/10 10:00:53;;;;;;;4.60;3.87;;;;;;;32.96;21.10;99933.13;5116890;28;20464;-63
2021/05/10 10:03:32;;;;;;;5.03;3.70;;;;;;;33.06;20.50;99929.38;5100526;28;20441;-63
2021/05/10 10:06:00;;;;;;;4.57;3.27;;;;;;;34.08;19.31;99931.88;5100210;28;20457;-64
2021/05/10 10:08:26;;;;;;;4.03;3.47;;;;;;;34.39;19.19;99924.16;5100413;28;20418;-62
2021/05/10 10:10:52;;;;;;;5.63;4.20;;;;;;;33.10;20.92;99931.75;5100324;28;20474;-63
2021/05/10 10:13:18;;;;;;;3.77;3.37;;;;;;;33.28;20.23;99924.56;5100769;28;20172;-62
2021/05/10 10:15:46;;;;;;;3.23;3.00;;;;;;;31.97;21.53;99946.00;5100342;28;20418;-63
2021/05/10 10:18:11;;;;;;;4.70;3.23;;;;;;;31.70;21.47;99938.66;5100362;28;20463;-63
2021/05/10 10:20:38;;;;;;;3.87;3.23;;;;;;;31.29;22.54;99924.44;5100355;28;20410;-62
2021/05/10 10:23:06;;;;;;;5.67;3.60;;;;;;;30.21;24.19;99948.97;5099539;28;20221;-62
2021/05/10 10:25:32;;;;;;;5.20;3.23;;;;;;;29.80;24.43;99933.69;5099988;28;20480;-62
2021/05/10 10:27:58;;;;;;;6.67;3.47;;;;;;;29.72;24.45;99927.09;5100277;28;20398;-63
2021/05/10 10:30:24;;;;;;;3.50;3.20;;;;;;;29.53;25.00;99927.78;5099167;28;20174;-64
2021/05/10 10:32:50;;;;;;;5.97;3.70;;;;;;;29.54;24.73;99923.31;5099728;28;20410;-64
2021/05/10 10:35:16;;;;;;;4.00;3.70;;;;;;;32.08;22.02;99918.91;5099706;28;20489;-63
2021/05/10 10:37:41;;;;;;;6.33;3.70;;;;;;;32.57;21.01;99921.47;5099948;28;20195;-61
2021/05/10 10:40:20;;;;;;;6.60;3.73;;;;;;;33.01;20.83;99914.63;5099813;28;20183;-62
2021/05/10 10:42:45;;;;;;;4.27;3.50;;;;;;;32.03;21.25;99923.03;5099603;28;20501;-61
2021/05/10 10:45:11;;;;;;;5.23;3.70;;;;;;;32.13;21.39;99942.72;5116868;28;20497;-62
2021/05/10 10:47:50;;;;;;;3.97;3.67;;;;;;;32.31;21.11;99928.53;5120678;28;20195;-62
2021/05/10 10:50:17;;;;;;;5.43;3.40;;;;;;;31.62;22.32;99919.66;5118443;28;20652;-62
2021/05/10 10:52:49;;;;;;;5.13;3.97;;;;;;;31.36;22.38;99933.63;5117487;28;20872;-63
2021/05/10 10:55:24;;;;;;;3.63;3.30;;;;;;;31.48;22.61;99929.81;5111353;27;20927;-64
2021/05/10 10:57:50;;;;;;;4.80;3.70;;;;;;;31.05;24.48;99928.34;5110028;28;20429;-62
2021/05/10 11:00:17;;;;;;;4.73;3.50;;;;;;;30.46;25.96;99928.09;5102205;28;20419;-62
2021/05/10 11:02:54;;;;;;;4.13;3.77;;;;;;;30.17;26.24;99934.09;5107546;28;20460;-61
2021/05/10 11:05:21;;;;;;;4.13;3.73;;;;;;;29.33;28.04;99929.44;5119801;27;20477;-61
2021/05/10 11:07:54;;;;;;;6.10;3.53;;;;;;;29.21;28.61;99930.41;5117881;27;20697;-62
2021/05/10 11:10:52;;;;;;;7.20;3.80;;;;;;;28.77;28.78;99937.53;5101832;28;20449;-62
2021/05/10 11:13:27;;;;;;;4.67;4.17;;;;;;;28.43;29.08;99945.53;5096504;28;20698;-61
2021/05/10 11:15:56;;;;;;;4.50;4.00;;;;;;;28.25;28.92;99945.16;5098845;28;20497;-62
2021/05/10 11:18:55;;;;;;;4.07;3.67;;;;;;;28.34;27.28;99944.44;5099668;28;20696;-61
2021/05/10 11:21:23;;;;;;;4.93;3.90;;;;;;;28.97;27.53;99949.38;5116044;27;20441;-62
2021/05/10 11:23:53;;;;;;;4.60;3.80;;;;;;;28.84;27.88;99939.63;5118257;28;20429;-62
2021/05/10 11:26:38;;;;;;;4.60;4.20;;;;;;;28.73;26.24;99937.78;5104099;28;20453;-61
2021/05/10 11:29:06;;;;;;;3.97;3.67;;;;;;;28.85;26.05;99930.59;5098579;28;20426;-61
2021/05/10 11:31:39;;;;;;;7.80;3.70;;;;;;;29.50;25.18;99938.81;5101712;28;20589;-61
2021/05/10 11:34:08;;;;;;;7.10;4.00;;;;;;;28.71;25.94;99950.50;5097927;28;20434;-60
2021/05/10 11:36:45;;;;;;;4.20;3.63;;;;;;;28.65;25.66;99952.81;5098239;28;20418;-61
2021/05/10 11:39:12;;;;;;;6.80;3.67;;;;;;;28.63;25.69;99973.47;5097863;28;20481;-61
2021/05/10 11:41:42;;;;;;;4.40;3.40;;;;;;;28.09;26.55;99966.91;5111891;28;20542;-62